sensor_id;sensor_type;location;lat;lon;timestamp;temperature;humidity
7684;DHT22;3884;48.616;12.872;2022-12-18T00:00:57;-4.00;99.90
7684;DHT22;3884;48.616;12.872;2022-12-18T00:03:26;-4.00;99.90
7684;DHT22;3884;48.616;12.872;2022-12-18T00:05:53;-4.00;99.90
7684;DHT22;3884;48.616;12.872;2022-12-18T00:08:20;-4.00;99.90
7684;DHT22;3884;48.616;12.872;2022-12-18T00:10:47;-4.00;99.90
7684;DHT22;3884;48.616;12.872;2022-12-18T00:13:14;-4.00;99.90
7684;DHT22;3884;48.616;12.872;2022-12-18T00:15:41;-4.00;99.90
7684;DHT22;3884;48.616;12.872;2022-12-18T00:18:08;-4.00;99.90
7684;DHT22;3884;48.616;12.872;2022-12-18T00:20:40;-4.10;99.90
7684;DHT22;3884;48.616;12.872;2022-12-18T00:23:07;-4.10;99.90
7684;DHT22;3884;48.616;12.872;2022-12-18T00:25:34;-4.20;99.90
7684;DHT22;3884;48.616;12.872;2022-12-18T00:28:03;-4.20;99.90
7684;DHT22;3884;48.616;12.872;2022-12-18T00:30:30;-4.10;99.90
7684;DHT22;3884;48.616;12.872;2022-12-18T00:32:57;-4.10;99.90
7684;DHT22;3884;48.616;12.872;2022-12-18T00:35:25;-4.00;99.90
7684;DHT22;3884;48.616;12.872;2022-12-18T00:37:53;-4.00;99.90
7684;DHT22;3884;48.616;12.872;2022-12-18T00:40:22;-4.00;99.90
7684;DHT22;3884;48.616;12.872;2022-12-18T00:42:49;-4.00;99.90
7684;DHT22;3884;48.616;12.872;2022-12-18T00:45:24;-4.00;99.90
7684;DHT22;3884;48.616;12.872;2022-12-18T00:47:52;-4.00;99.90
7684;DHT22;3884;48.616;12.872;2022-12-18T00:50:19;-4.00;99.90
7684;DHT22;3884;48.616;12.872;2022-12-18T00:52:46;-4.00;99.90
7684;DHT22;3884;48.616;12.872;2022-12-18T00:55:16;-4.00;99.90
7684;DHT22;3884;48.616;12.872;2022-12-18T00:57:43;-4.10;99.90
7684;DHT22;3884;48.616;12.872;2022-12-18T01:00:13;-4.10;99.90
7684;DHT22;3884;48.616;12.872;2022-12-18T01:02:42;-4.10;99.90
7684;DHT22;3884;48.616;12.872;2022-12-18T01:05:10;-4.10;99.90
7684;DHT22;3884;48.616;12.872;2022-12-18T01:07:37;-4.00;99.90
7684;DHT22;3884;48.616;12.872;2022-12-18T01:10:06;-4.10;99.90
7684;DHT22;3884;48.616;12.872;2022-12-18T01:12:36;-4.10;99.90
7684;DHT22;3884;48.616;12.872;2022-12-18T01:15:04;-4.10;99.90
7684;DHT22;3884;48.616;12.872;2022-12-18T01:17:32;-4.10;99.90
7684;DHT22;3884;48.616;12.872;2022-12-18T01:20:00;-4.10;99.90
7684;DHT22;3884;48.616;12.872;2022-12-18T01:22:27;-4.10;99.90
7684;DHT22;3884;48.616;12.872;2022-12-18T01:24:54;-4.10;99.90
7684;DHT22;3884;48.616;12.872;2022-12-18T01:27:22;-4.10;99.90
7684;DHT22;3884;48.616;12.872;2022-12-18T01:29:52;-4.10;99.90
7684;DHT22;3884;48.616;12.872;2022-12-18T01:32:19;-4.10;99.90
7684;DHT22;3884;48.616;12.872;2022-12-18T01:34:49;-4.20;99.90
7684;DHT22;3884;48.616;12.872;2022-12-18T01:37:16;-4.10;99.90
7684;DHT22;3884;48.616;12.872;2022-12-18T01:39:43;-4.10;99.90
7684;DHT22;3884;48.616;12.872;2022-12-18T01:42:12;-4.10;99.90
7684;DHT22;3884;48.616;12.872;2022-12-18T01:44:56;-4.10;99.90
7684;DHT22;3884;48.616;12.872;2022-12-18T01:47:26;-4.10;99.90
7684;DHT22;3884;48.616;12.872;2022-12-18T01:49:54;-4.10;99.90
7684;DHT22;3884;48.616;12.872;2022-12-18T01:52:25;-4.20;99.90
7684;DHT22;3884;48.616;12.872;2022-12-18T01:54:53;-4.20;99.90
7684;DHT22;3884;48.616;12.872;2022-12-18T01:57:21;-4.20;99.90
7684;DHT22;3884;48.616;12.872;2022-12-18T01:59:52;-4.20;99.90
7684;DHT22;3884;48.616;12.872;2022-12-18T02:02:21;-4.30;99.90
7684;DHT22;3884;48.616;12.872;2022-12-18T02:04:48;-4.30;99.90
7684;DHT22;3884;48.616;12.872;2022-12-18T02:07:21;-4.30;99.90
7684;DHT22;3884;48.616;12.872;2022-12-18T02:09:57;-4.30;99.90
7684;DHT22;3884;48.616;12.872;2022-12-18T02:12:29;-4.30;99.90
7684;DHT22;3884;48.616;12.872;2022-12-18T02:15:01;-4.40;99.90
7684;DHT22;3884;48.616;12.872;2022-12-18T02:17:37;-4.40;99.90
7684;DHT22;3884;48.616;12.872;2022-12-18T02:20:12;-4.40;99.90
7684;DHT22;3884;48.616;12.872;2022-12-18T02:22:50;-4.40;99.90
7684;DHT22;3884;48.616;12.872;2022-12-18T02:25:30;-4.40;99.90
7684;DHT22;3884;48.616;12.872;2022-12-18T02:28:04;-4.30;99.90
7684;DHT22;3884;48.616;12.872;2022-12-18T02:30:35;-4.30;99.90
7684;DHT22;3884;48.616;12.872;2022-12-18T02:33:05;-4.30;99.90
7684;DHT22;3884;48.616;12.872;2022-12-18T02:35:34;-4.30;99.90
7684;DHT22;3884;48.616;12.872;2022-12-18T02:38:03;-4.30;99.90
7684;DHT22;3884;48.616;12.872;2022-12-18T02:40:35;-4.30;99.90
7684;DHT22;3884;48.616;12.872;2022-12-18T02:43:09;-4.20;99.90
7684;DHT22;3884;48.616;12.872;2022-12-18T02:45:45;-4.20;99.90
7684;DHT22;3884;48.616;12.872;2022-12-18T02:48:13;-4.20;99.90
7684;DHT22;3884;48.616;12.872;2022-12-18T02:50:46;-4.10;99.90
7684;DHT22;3884;48.616;12.872;2022-12-18T02:53:18;-4.20;99.90
7684;DHT22;3884;48.616;12.872;2022-12-18T02:55:56;-4.20;99.90
7684;DHT22;3884;48.616;12.872;2022-12-18T02:58:32;-4.20;99.90
7684;DHT22;3884;48.616;12.872;2022-12-18T03:01:11;-4.30;99.90
7684;DHT22;3884;48.616;12.872;2022-12-18T03:03:43;-4.30;99.90
7684;DHT22;3884;48.616;12.872;2022-12-18T03:06:17;-4.20;99.90
7684;DHT22;3884;48.616;12.872;2022-12-18T03:08:52;-4.20;99.90
7684;DHT22;3884;48.616;12.872;2022-12-18T03:11:22;-4.20;99.90
7684;DHT22;3884;48.616;12.872;2022-12-18T03:14:12;-4.10;99.90
7684;DHT22;3884;48.616;12.872;2022-12-18T03:16:42;-4.10;99.90
7684;DHT22;3884;48.616;12.872;2022-12-18T03:19:13;-4.10;99.90
7684;DHT22;3884;48.616;12.872;2022-12-18T03:21:44;-4.10;99.90
7684;DHT22;3884;48.616;12.872;2022-12-18T03:24:15;-4.10;99.90
7684;DHT22;3884;48.616;12.872;2022-12-18T03:26:46;-4.10;99.90
7684;DHT22;3884;48.616;12.872;2022-12-18T03:29:19;-4.10;99.90
7684;DHT22;3884;48.616;12.872;2022-12-18T03:31:53;-4.10;99.90
7684;DHT22;3884;48.616;12.872;2022-12-18T03:34:24;-4.10;99.90
7684;DHT22;3884;48.616;12.872;2022-12-18T03:36:53;-4.10;99.90
7684;DHT22;3884;48.616;12.872;2022-12-18T03:39:22;-4.10;99.90
7684;DHT22;3884;48.616;12.872;2022-12-18T03:42:01;-4.10;99.90
7684;DHT22;3884;48.616;12.872;2022-12-18T03:44:44;-4.10;99.90
7684;DHT22;3884;48.616;12.872;2022-12-18T03:47:21;-4.10;99.90
7684;DHT22;3884;48.616;12.872;2022-12-18T03:49:59;-4.20;99.90
7684;DHT22;3884;48.616;12.872;2022-12-18T03:52:37;-4.10;99.90
7684;DHT22;3884;48.616;12.872;2022-12-18T03:55:07;-4.20;99.90
7684;DHT22;3884;48.616;12.872;2022-12-18T03:57:37;-4.20;99.90
7684;DHT22;3884;48.616;12.872;2022-12-18T04:00:09;-4.20;99.90
7684;DHT22;3884;48.616;12.872;2022-12-18T04:02:44;-4.20;99.90
7684;DHT22;3884;48.616;12.872;2022-12-18T04:05:14;-4.20;99.90
7684;DHT22;3884;48.616;12.872;2022-12-18T04:07:43;-4.20;99.90
7684;DHT22;3884;48.616;12.872;2022-12-18T04:10:13;-4.10;99.90
7684;DHT22;3884;48.616;12.872;2022-12-18T04:12:41;-4.10;99.90
7684;DHT22;3884;48.616;12.872;2022-12-18T04:15:12;-4.10;99.90
7684;DHT22;3884;48.616;12.872;2022-12-18T04:17:46;-4.00;99.90
7684;DHT22;3884;48.616;12.872;2022-12-18T04:20:15;-4.10;99.90
7684;DHT22;3884;48.616;12.872;2022-12-18T04:22:43;-4.10;99.90
7684;DHT22;3884;48.616;12.872;2022-12-18T04:25:11;-4.10;99.90
7684;DHT22;3884;48.616;12.872;2022-12-18T04:27:48;-4.10;99.90
7684;DHT22;3884;48.616;12.872;2022-12-18T04:30:16;-4.10;99.90
7684;DHT22;3884;48.616;12.872;2022-12-18T04:32:43;-4.00;99.90
7684;DHT22;3884;48.616;12.872;2022-12-18T04:35:10;-4.10;99.90
7684;DHT22;3884;48.616;12.872;2022-12-18T04:37:41;-4.00;99.90
7684;DHT22;3884;48.616;12.872;2022-12-18T04:40:10;-4.00;99.90
7684;DHT22;3884;48.616;12.872;2022-12-18T04:42:41;-4.10;99.90
7684;DHT22;3884;48.616;12.872;2022-12-18T04:45:09;-4.10;99.90
7684;DHT22;3884;48.616;12.872;2022-12-18T04:47:37;-4.00;99.90
7684;DHT22;3884;48.616;12.872;2022-12-18T04:50:05;-3.80;99.90
7684;DHT22;3884;48.616;12.872;2022-12-18T04:52:32;-4.00;99.90
7684;DHT22;3884;48.616;12.872;2022-12-18T04:54:59;-4.00;99.90
7684;DHT22;3884;48.616;12.872;2022-12-18T04:57:26;-4.00;99.90
7684;DHT22;3884;48.616;12.872;2022-12-18T04:59:53;-4.00;99.90
7684;DHT22;3884;48.616;12.872;2022-12-18T05:02:20;-4.10;99.90
7684;DHT22;3884;48.616;12.872;2022-12-18T05:04:48;-4.20;99.90
7684;DHT22;3884;48.616;12.872;2022-12-18T05:07:15;-4.20;99.90
7684;DHT22;3884;48.616;12.872;2022-12-18T05:09:42;-4.20;99.90
7684;DHT22;3884;48.616;12.872;2022-12-18T05:12:09;-4.20;99.90
7684;DHT22;3884;48.616;12.872;2022-12-18T05:14:36;-4.20;99.90
7684;DHT22;3884;48.616;12.872;2022-12-18T05:17:02;-4.30;99.90
7684;DHT22;3884;48.616;12.872;2022-12-18T05:19:29;-4.30;99.90
7684;DHT22;3884;48.616;12.872;2022-12-18T05:21:58;-4.30;99.90
7684;DHT22;3884;48.616;12.872;2022-12-18T05:24:25;-4.20;99.90
7684;DHT22;3884;48.616;12.872;2022-12-18T05:26:52;-4.30;99.90
7684;DHT22;3884;48.616;12.872;2022-12-18T05:29:19;-4.30;99.90
7684;DHT22;3884;48.616;12.872;2022-12-18T05:31:45;-4.30;99.90
7684;DHT22;3884;48.616;12.872;2022-12-18T05:34:12;-4.40;99.90
7684;DHT22;3884;48.616;12.872;2022-12-18T05:36:39;-4.40;99.90
7684;DHT22;3884;48.616;12.872;2022-12-18T05:39:08;-4.50;99.90
7684;DHT22;3884;48.616;12.872;2022-12-18T05:41:35;-4.50;99.90
7684;DHT22;3884;48.616;12.872;2022-12-18T05:44:02;-4.40;99.90
7684;DHT22;3884;48.616;12.872;2022-12-18T05:46:29;-4.50;99.90
7684;DHT22;3884;48.616;12.872;2022-12-18T05:48:59;-4.50;99.90
7684;DHT22;3884;48.616;12.872;2022-12-18T05:51:26;-4.50;99.90
7684;DHT22;3884;48.616;12.872;2022-12-18T05:53:53;-4.50;99.90
7684;DHT22;3884;48.616;12.872;2022-12-18T05:56:22;-4.50;99.90
7684;DHT22;3884;48.616;12.872;2022-12-18T05:58:52;-4.50;99.90
7684;DHT22;3884;48.616;12.872;2022-12-18T06:01:22;-4.50;99.90
7684;DHT22;3884;48.616;12.872;2022-12-18T06:03:50;-4.50;99.90
7684;DHT22;3884;48.616;12.872;2022-12-18T06:06:19;-4.60;99.90
7684;DHT22;3884;48.616;12.872;2022-12-18T06:08:46;-4.60;99.90
7684;DHT22;3884;48.616;12.872;2022-12-18T06:11:16;-4.70;99.90
7684;DHT22;3884;48.616;12.872;2022-12-18T06:13:45;-4.70;99.90
7684;DHT22;3884;48.616;12.872;2022-12-18T06:16:12;-4.80;99.90
7684;DHT22;3884;48.616;12.872;2022-12-18T06:18:39;-4.90;99.90
7684;DHT22;3884;48.616;12.872;2022-12-18T06:21:06;-4.90;99.90
7684;DHT22;3884;48.616;12.872;2022-12-18T06:23:33;-4.90;99.90
7684;DHT22;3884;48.616;12.872;2022-12-18T06:26:04;-4.80;99.90
7684;DHT22;3884;48.616;12.872;2022-12-18T06:28:31;-4.80;99.90
7684;DHT22;3884;48.616;12.872;2022-12-18T06:30:59;-4.90;99.90
7684;DHT22;3884;48.616;12.872;2022-12-18T06:33:27;-4.90;99.90
7684;DHT22;3884;48.616;12.872;2022-12-18T06:35:58;-4.90;99.90
7684;DHT22;3884;48.616;12.872;2022-12-18T06:38:26;-4.90;99.90
7684;DHT22;3884;48.616;12.872;2022-12-18T06:40:53;-5.00;99.90
7684;DHT22;3884;48.616;12.872;2022-12-18T06:43:20;-5.10;99.90
7684;DHT22;3884;48.616;12.872;2022-12-18T06:45:47;-5.10;99.90
7684;DHT22;3884;48.616;12.872;2022-12-18T06:48:19;-5.10;99.90
7684;DHT22;3884;48.616;12.872;2022-12-18T06:50:47;-5.10;99.90
7684;DHT22;3884;48.616;12.872;2022-12-18T06:53:14;-5.20;99.90
7684;DHT22;3884;48.616;12.872;2022-12-18T06:55:41;-5.20;99.90
7684;DHT22;3884;48.616;12.872;2022-12-18T06:58:08;-5.20;99.90
7684;DHT22;3884;48.616;12.872;2022-12-18T07:00:35;-5.20;99.90
7684;DHT22;3884;48.616;12.872;2022-12-18T07:03:02;-5.10;99.90
7684;DHT22;3884;48.616;12.872;2022-12-18T07:05:30;-5.10;99.90
7684;DHT22;3884;48.616;12.872;2022-12-18T07:07:57;-5.10;99.90
7684;DHT22;3884;48.616;12.872;2022-12-18T07:10:25;-5.10;99.90
7684;DHT22;3884;48.616;12.872;2022-12-18T07:12:52;-5.00;99.90
7684;DHT22;3884;48.616;12.872;2022-12-18T07:15:19;-5.10;99.90
7684;DHT22;3884;48.616;12.872;2022-12-18T07:17:46;-5.10;99.90
7684;DHT22;3884;48.616;12.872;2022-12-18T07:20:12;-5.10;99.90
7684;DHT22;3884;48.616;12.872;2022-12-18T07:22:41;-5.10;99.90
7684;DHT22;3884;48.616;12.872;2022-12-18T07:25:08;-5.00;99.90
7684;DHT22;3884;48.616;12.872;2022-12-18T07:27:35;-5.00;99.90
7684;DHT22;3884;48.616;12.872;2022-12-18T07:30:02;-5.00;99.90
7684;DHT22;3884;48.616;12.872;2022-12-18T07:32:30;-5.00;99.90
7684;DHT22;3884;48.616;12.872;2022-12-18T07:34:57;-5.00;99.90
7684;DHT22;3884;48.616;12.872;2022-12-18T07:37:24;-5.00;99.90
7684;DHT22;3884;48.616;12.872;2022-12-18T07:39:52;-5.00;99.90
7684;DHT22;3884;48.616;12.872;2022-12-18T07:42:19;-5.00;99.90
7684;DHT22;3884;48.616;12.872;2022-12-18T07:44:58;-4.90;99.90
7684;DHT22;3884;48.616;12.872;2022-12-18T07:47:25;-4.90;99.90
7684;DHT22;3884;48.616;12.872;2022-12-18T07:49:52;-4.90;99.90
7684;DHT22;3884;48.616;12.872;2022-12-18T07:52:19;-4.90;99.90
7684;DHT22;3884;48.616;12.872;2022-12-18T07:54:46;-4.90;99.90
7684;DHT22;3884;48.616;12.872;2022-12-18T07:57:16;-4.80;99.90
7684;DHT22;3884;48.616;12.872;2022-12-18T07:59:43;-4.80;99.90
7684;DHT22;3884;48.616;12.872;2022-12-18T08:02:10;-4.80;99.90
7684;DHT22;3884;48.616;12.872;2022-12-18T08:04:37;-4.80;99.90
7684;DHT22;3884;48.616;12.872;2022-12-18T08:07:04;-4.70;99.90
7684;DHT22;3884;48.616;12.872;2022-12-18T08:09:31;-4.60;99.90
7684;DHT22;3884;48.616;12.872;2022-12-18T08:11:58;-4.60;99.90
7684;DHT22;3884;48.616;12.872;2022-12-18T08:14:27;-4.60;99.90
7684;DHT22;3884;48.616;12.872;2022-12-18T08:16:54;-4.60;99.90
7684;DHT22;3884;48.616;12.872;2022-12-18T08:19:20;-4.60;99.90
7684;DHT22;3884;48.616;12.872;2022-12-18T08:21:47;-4.60;99.90
7684;DHT22;3884;48.616;12.872;2022-12-18T08:24:14;-4.70;99.90
7684;DHT22;3884;48.616;12.872;2022-12-18T08:26:41;-4.80;99.90
7684;DHT22;3884;48.616;12.872;2022-12-18T08:29:09;-4.80;99.90
7684;DHT22;3884;48.616;12.872;2022-12-18T08:31:37;-4.80;99.90
7684;DHT22;3884;48.616;12.872;2022-12-18T08:34:04;-4.70;99.90
7684;DHT22;3884;48.616;12.872;2022-12-18T08:36:31;-4.80;99.90
7684;DHT22;3884;48.616;12.872;2022-12-18T08:38:58;-4.70;99.90
7684;DHT22;3884;48.616;12.872;2022-12-18T08:41:26;-4.60;99.90
7684;DHT22;3884;48.616;12.872;2022-12-18T08:43:53;-4.60;99.90
7684;DHT22;3884;48.616;12.872;2022-12-18T08:46:40;-4.60;99.90
7684;DHT22;3884;48.616;12.872;2022-12-18T08:49:08;-4.50;99.90
7684;DHT22;3884;48.616;12.872;2022-12-18T08:51:35;-4.40;99.90
7684;DHT22;3884;48.616;12.872;2022-12-18T08:54:03;-4.40;99.90
7684;DHT22;3884;48.616;12.872;2022-12-18T08:56:30;-4.40;99.90
7684;DHT22;3884;48.616;12.872;2022-12-18T08:58:58;-4.30;99.90
7684;DHT22;3884;48.616;12.872;2022-12-18T09:01:25;-4.30;99.90
7684;DHT22;3884;48.616;12.872;2022-12-18T09:03:53;-4.20;99.90
7684;DHT22;3884;48.616;12.872;2022-12-18T09:06:21;-4.20;99.90
7684;DHT22;3884;48.616;12.872;2022-12-18T09:08:49;-4.10;99.90
7684;DHT22;3884;48.616;12.872;2022-12-18T09:11:20;-4.00;99.90
7684;DHT22;3884;48.616;12.872;2022-12-18T09:13:48;-4.00;99.90
7684;DHT22;3884;48.616;12.872;2022-12-18T09:16:15;-4.00;99.90
7684;DHT22;3884;48.616;12.872;2022-12-18T09:18:42;-4.00;99.90
7684;DHT22;3884;48.616;12.872;2022-12-18T09:21:14;-4.00;99.90
7684;DHT22;3884;48.616;12.872;2022-12-18T09:23:41;-4.10;99.90
7684;DHT22;3884;48.616;12.872;2022-12-18T09:26:08;-4.00;99.90
7684;DHT22;3884;48.616;12.872;2022-12-18T09:28:35;-4.00;99.90
7684;DHT22;3884;48.616;12.872;2022-12-18T09:31:05;-4.10;99.90
7684;DHT22;3884;48.616;12.872;2022-12-18T09:33:33;-4.00;99.90
7684;DHT22;3884;48.616;12.872;2022-12-18T09:36:02;-4.10;99.90
7684;DHT22;3884;48.616;12.872;2022-12-18T09:38:30;-4.10;99.90
7684;DHT22;3884;48.616;12.872;2022-12-18T09:41:00;-4.00;99.90
7684;DHT22;3884;48.616;12.872;2022-12-18T09:43:35;-4.00;99.90
7684;DHT22;3884;48.616;12.872;2022-12-18T09:46:08;-4.00;99.90
7684;DHT22;3884;48.616;12.872;2022-12-18T09:48:39;-3.90;99.90
7684;DHT22;3884;48.616;12.872;2022-12-18T09:51:13;-3.90;99.90
7684;DHT22;3884;48.616;12.872;2022-12-18T09:53:47;-3.90;99.90
7684;DHT22;3884;48.616;12.872;2022-12-18T09:56:18;-3.70;99.90
7684;DHT22;3884;48.616;12.872;2022-12-18T09:58:51;-3.90;99.90
7684;DHT22;3884;48.616;12.872;2022-12-18T10:01:21;-3.80;99.90
7684;DHT22;3884;48.616;12.872;2022-12-18T10:03:49;-3.90;99.90
7684;DHT22;3884;48.616;12.872;2022-12-18T10:06:20;-3.70;99.90
7684;DHT22;3884;48.616;12.872;2022-12-18T10:08:55;-3.80;99.90
7684;DHT22;3884;48.616;12.872;2022-12-18T10:11:32;-3.80;99.90
7684;DHT22;3884;48.616;12.872;2022-12-18T10:14:05;-3.80;99.90
7684;DHT22;3884;48.616;12.872;2022-12-18T10:16:40;-4.00;99.90
7684;DHT22;3884;48.616;12.872;2022-12-18T10:22:20;-4.00;99.90
7684;DHT22;3884;48.616;12.872;2022-12-18T10:24:54;-4.00;99.90
7684;DHT22;3884;48.616;12.872;2022-12-18T10:27:24;-4.10;99.90
7684;DHT22;3884;48.616;12.872;2022-12-18T10:29:52;-4.20;99.90
7684;DHT22;3884;48.616;12.872;2022-12-18T10:32:21;-4.30;99.90
7684;DHT22;3884;48.616;12.872;2022-12-18T10:34:50;-4.30;99.90
7684;DHT22;3884;48.616;12.872;2022-12-18T10:37:20;-4.30;99.90
7684;DHT22;3884;48.616;12.872;2022-12-18T10:40:07;-4.20;99.90
7684;DHT22;3884;48.616;12.872;2022-12-18T10:42:35;-4.10;99.90
7684;DHT22;3884;48.616;12.872;2022-12-18T10:45:08;-4.00;99.90
7684;DHT22;3884;48.616;12.872;2022-12-18T10:47:37;-4.00;99.90
7684;DHT22;3884;48.616;12.872;2022-12-18T10:50:19;-3.90;99.90
7684;DHT22;3884;48.616;12.872;2022-12-18T10:52:54;-3.90;99.90
7684;DHT22;3884;48.616;12.872;2022-12-18T10:55:31;-4.00;99.90
7684;DHT22;3884;48.616;12.872;2022-12-18T10:58:16;-4.00;99.90
7684;DHT22;3884;48.616;12.872;2022-12-18T11:00:44;-3.90;99.90
7684;DHT22;3884;48.616;12.872;2022-12-18T11:03:30;-3.90;99.90
7684;DHT22;3884;48.616;12.872;2022-12-18T11:06:03;-3.70;99.90
7684;DHT22;3884;48.616;12.872;2022-12-18T11:08:30;-3.80;99.90
7684;DHT22;3884;48.616;12.872;2022-12-18T11:10:58;-3.80;99.90
7684;DHT22;3884;48.616;12.872;2022-12-18T11:13:27;-3.70;99.90
7684;DHT22;3884;48.616;12.872;2022-12-18T11:15:54;-3.70;99.90
7684;DHT22;3884;48.616;12.872;2022-12-18T11:18:25;-3.70;99.90
7684;DHT22;3884;48.616;12.872;2022-12-18T11:20:55;-3.70;99.90
7684;DHT22;3884;48.616;12.872;2022-12-18T11:23:23;-3.70;99.90
7684;DHT22;3884;48.616;12.872;2022-12-18T11:25:52;-3.50;99.90
7684;DHT22;3884;48.616;12.872;2022-12-18T11:28:39;-3.70;99.90
7684;DHT22;3884;48.616;12.872;2022-12-18T11:31:23;-3.60;99.90
7684;DHT22;3884;48.616;12.872;2022-12-18T11:34:00;-3.70;99.90
7684;DHT22;3884;48.616;12.872;2022-12-18T11:36:31;-3.70;99.90
7684;DHT22;3884;48.616;12.872;2022-12-18T11:39:03;-3.60;99.90
7684;DHT22;3884;48.616;12.872;2022-12-18T11:41:36;-3.80;99.90
7684;DHT22;3884;48.616;12.872;2022-12-18T11:44:27;-3.80;99.90
7684;DHT22;3884;48.616;12.872;2022-12-18T11:46:59;-3.80;99.90
7684;DHT22;3884;48.616;12.872;2022-12-18T11:49:30;-3.80;99.90
7684;DHT22;3884;48.616;12.872;2022-12-18T11:52:04;-3.90;99.90
7684;DHT22;3884;48.616;12.872;2022-12-18T11:54:34;-3.80;99.90
7684;DHT22;3884;48.616;12.872;2022-12-18T11:57:07;-3.70;99.90
7684;DHT22;3884;48.616;12.872;2022-12-18T11:59:48;-3.80;99.90
7684;DHT22;3884;48.616;12.872;2022-12-18T12:02:32;-3.80;99.90
7684;DHT22;3884;48.616;12.872;2022-12-18T12:05:15;-3.80;99.90
7684;DHT22;3884;48.616;12.872;2022-12-18T12:07:53;-3.80;99.90
7684;DHT22;3884;48.616;12.872;2022-12-18T12:10:37;-3.80;99.90
7684;DHT22;3884;48.616;12.872;2022-12-18T12:13:22;-3.80;99.90
7684;DHT22;3884;48.616;12.872;2022-12-18T12:15:58;-4.00;99.90
7684;DHT22;3884;48.616;12.872;2022-12-18T12:18:34;-4.00;99.90
7684;DHT22;3884;48.616;12.872;2022-12-18T12:21:06;-4.00;99.90
7684;DHT22;3884;48.616;12.872;2022-12-18T12:23:40;-3.90;99.90
7684;DHT22;3884;48.616;12.872;2022-12-18T12:26:13;-3.80;99.90
7684;DHT22;3884;48.616;12.872;2022-12-18T12:28:57;-3.70;99.90
7684;DHT22;3884;48.616;12.872;2022-12-18T12:31:35;-3.60;99.90
7684;DHT22;3884;48.616;12.872;2022-12-18T12:34:12;-3.60;99.90
7684;DHT22;3884;48.616;12.872;2022-12-18T12:36:57;-3.60;99.90
7684;DHT22;3884;48.616;12.872;2022-12-18T12:39:30;-3.50;99.90
7684;DHT22;3884;48.616;12.872;2022-12-18T12:41:58;-3.50;99.90
7684;DHT22;3884;48.616;12.872;2022-12-18T12:44:45;-3.50;99.90
7684;DHT22;3884;48.616;12.872;2022-12-18T12:47:18;-3.50;99.90
7684;DHT22;3884;48.616;12.872;2022-12-18T12:49:47;-3.60;99.90
7684;DHT22;3884;48.616;12.872;2022-12-18T12:52:18;-3.60;99.90
7684;DHT22;3884;48.616;12.872;2022-12-18T12:54:48;-3.60;99.90
7684;DHT22;3884;48.616;12.872;2022-12-18T12:57:19;-3.60;99.90
7684;DHT22;3884;48.616;12.872;2022-12-18T12:59:56;-3.60;99.90
7684;DHT22;3884;48.616;12.872;2022-12-18T13:02:30;-3.70;99.90
7684;DHT22;3884;48.616;12.872;2022-12-18T13:05:06;-3.70;99.90
7684;DHT22;3884;48.616;12.872;2022-12-18T13:07:38;-3.60;99.90
7684;DHT22;3884;48.616;12.872;2022-12-18T13:10:14;-3.60;99.90
7684;DHT22;3884;48.616;12.872;2022-12-18T13:12:54;-3.60;99.90
7684;DHT22;3884;48.616;12.872;2022-12-18T13:15:32;-3.60;99.90
7684;DHT22;3884;48.616;12.872;2022-12-18T13:18:10;-3.70;99.90
7684;DHT22;3884;48.616;12.872;2022-12-18T13:20:40;-3.60;99.90
7684;DHT22;3884;48.616;12.872;2022-12-18T13:23:30;-3.70;99.90
7684;DHT22;3884;48.616;12.872;2022-12-18T13:25:58;-3.60;99.90
7684;DHT22;3884;48.616;12.872;2022-12-18T13:34:35;-3.70;99.90
7684;DHT22;3884;48.616;12.872;2022-12-18T13:37:40;-3.70;99.90
7684;DHT22;3884;48.616;12.872;2022-12-18T13:43:36;-3.60;99.90
7684;DHT22;3884;48.616;12.872;2022-12-18T13:46:17;-3.70;99.90
7684;DHT22;3884;48.616;12.872;2022-12-18T13:48:51;-3.80;99.90
7684;DHT22;3884;48.616;12.872;2022-12-18T13:51:21;-3.70;99.90
7684;DHT22;3884;48.616;12.872;2022-12-18T13:53:51;-3.70;99.90
7684;DHT22;3884;48.616;12.872;2022-12-18T13:56:22;-3.80;99.90
7684;DHT22;3884;48.616;12.872;2022-12-18T13:59:11;-3.80;99.90
7684;DHT22;3884;48.616;12.872;2022-12-18T14:01:46;-3.80;99.90
7684;DHT22;3884;48.616;12.872;2022-12-18T14:04:20;-3.80;99.90
7684;DHT22;3884;48.616;12.872;2022-12-18T14:06:51;-3.70;99.90
7684;DHT22;3884;48.616;12.872;2022-12-18T14:09:21;-3.70;99.90
7684;DHT22;3884;48.616;12.872;2022-12-18T14:11:50;-3.80;99.90
7684;DHT22;3884;48.616;12.872;2022-12-18T14:14:19;-3.80;99.90
7684;DHT22;3884;48.616;12.872;2022-12-18T14:16:47;-3.80;99.90
7684;DHT22;3884;48.616;12.872;2022-12-18T14:19:16;-3.90;99.90
7684;DHT22;3884;48.616;12.872;2022-12-18T14:21:49;-3.80;99.90
7684;DHT22;3884;48.616;12.872;2022-12-18T14:24:18;-3.80;99.90
7684;DHT22;3884;48.616;12.872;2022-12-18T14:26:46;-3.70;99.90
7684;DHT22;3884;48.616;12.872;2022-12-18T14:29:25;-3.80;99.90
7684;DHT22;3884;48.616;12.872;2022-12-18T14:32:09;-3.90;99.90
7684;DHT22;3884;48.616;12.872;2022-12-18T14:34:37;-4.00;99.90
7684;DHT22;3884;48.616;12.872;2022-12-18T14:37:07;-4.00;99.90
7684;DHT22;3884;48.616;12.872;2022-12-18T14:39:35;-4.10;99.90
7684;DHT22;3884;48.616;12.872;2022-12-18T14:42:02;-4.20;99.90
7684;DHT22;3884;48.616;12.872;2022-12-18T14:44:29;-4.20;99.90
7684;DHT22;3884;48.616;12.872;2022-12-18T14:46:56;-4.20;99.90
7684;DHT22;3884;48.616;12.872;2022-12-18T14:49:26;-4.30;99.90
7684;DHT22;3884;48.616;12.872;2022-12-18T14:51:55;-4.30;99.90
7684;DHT22;3884;48.616;12.872;2022-12-18T14:54:24;-4.30;99.90
7684;DHT22;3884;48.616;12.872;2022-12-18T14:56:57;-4.40;99.90
7684;DHT22;3884;48.616;12.872;2022-12-18T14:59:27;-4.40;99.90
7684;DHT22;3884;48.616;12.872;2022-12-18T15:01:59;-4.50;99.90
7684;DHT22;3884;48.616;12.872;2022-12-18T15:04:30;-4.60;99.90
7684;DHT22;3884;48.616;12.872;2022-12-18T15:07:08;-4.60;99.90
7684;DHT22;3884;48.616;12.872;2022-12-18T15:09:38;-4.60;99.90
7684;DHT22;3884;48.616;12.872;2022-12-18T15:12:22;-4.60;99.90
7684;DHT22;3884;48.616;12.872;2022-12-18T15:14:51;-4.70;99.90
7684;DHT22;3884;48.616;12.872;2022-12-18T15:17:19;-4.60;99.90
7684;DHT22;3884;48.616;12.872;2022-12-18T15:19:48;-4.70;99.90
7684;DHT22;3884;48.616;12.872;2022-12-18T15:22:22;-4.70;99.90
7684;DHT22;3884;48.616;12.872;2022-12-18T15:24:53;-4.70;99.90
7684;DHT22;3884;48.616;12.872;2022-12-18T15:27:26;-4.80;99.90
7684;DHT22;3884;48.616;12.872;2022-12-18T15:30:16;-4.80;99.90
7684;DHT22;3884;48.616;12.872;2022-12-18T15:32:44;-4.90;99.90
7684;DHT22;3884;48.616;12.872;2022-12-18T15:35:15;-4.90;99.90
7684;DHT22;3884;48.616;12.872;2022-12-18T15:37:42;-4.90;99.90
7684;DHT22;3884;48.616;12.872;2022-12-18T15:40:14;-5.00;99.90
7684;DHT22;3884;48.616;12.872;2022-12-18T15:42:41;-4.90;99.90
7684;DHT22;3884;48.616;12.872;2022-12-18T15:45:26;-5.00;99.90
7684;DHT22;3884;48.616;12.872;2022-12-18T15:47:53;-5.00;99.90
7684;DHT22;3884;48.616;12.872;2022-12-18T15:50:20;-5.00;99.90
7684;DHT22;3884;48.616;12.872;2022-12-18T15:52:49;-5.00;99.90
7684;DHT22;3884;48.616;12.872;2022-12-18T15:55:20;-5.00;99.90
7684;DHT22;3884;48.616;12.872;2022-12-18T15:58:05;-5.10;99.90
7684;DHT22;3884;48.616;12.872;2022-12-18T16:00:33;-5.10;99.90
7684;DHT22;3884;48.616;12.872;2022-12-18T16:03:01;-5.10;99.90
7684;DHT22;3884;48.616;12.872;2022-12-18T16:05:28;-5.10;99.90
7684;DHT22;3884;48.616;12.872;2022-12-18T16:07:55;-5.10;99.90
7684;DHT22;3884;48.616;12.872;2022-12-18T16:10:24;-5.10;99.90
7684;DHT22;3884;48.616;12.872;2022-12-18T16:12:52;-5.20;99.90
7684;DHT22;3884;48.616;12.872;2022-12-18T16:15:19;-5.10;99.90
7684;DHT22;3884;48.616;12.872;2022-12-18T16:17:46;-5.20;99.90
7684;DHT22;3884;48.616;12.872;2022-12-18T16:20:14;-5.20;99.90